Time;durP1;ratioP1;P1;durP2;ratioP2;P2;SDS_P1;SDS_P2;PMS_P1;PMS_P2;Temp;Humidity;BMP_temperature;BMP_pressure;BME280_temperature;BME280_humidity;BME280_pressure;Samples;Min_cycle;Max_cycle;Signal;HPM_P1;HPM_P2
2023/06/28 00:01:50;;;;;;;0.30;0.30;;;;;;;13.66;85.67;98583.06;4848870;29;20057;-90
2023/06/28 00:04:17;;;;;;;0.30;0.30;;;;;;;13.66;86.06;98585.75;4846485;29;20583;-90
2023/06/28 00:06:44;;;;;;;0.30;0.30;;;;;;;13.62;86.27;98590.09;4846340;29;20613;-90
2023/06/28 00:09:11;;;;;;;0.30;0.30;;;;;;;13.59;86.68;98590.66;4857592;29;20176;-89
2023/06/28 00:11:45;;;;;;;0.30;0.30;;;;;;;13.56;86.88;98588.50;4862514;29;20059;-90
2023/06/28 00:14:12;;;;;;;0.30;0.30;;;;;;;13.55;86.85;98595.00;4854262;29;20061;-91
2023/06/28 00:16:46;;;;;;;0.30;0.30;;;;;;;13.43;86.88;98579.84;4844625;29;20517;-91
2023/06/28 00:58:44;;;;;;;0.40;0.40;;;;;;;13.39;86.73;98591.50;4788034;29;20058;-89
2023/06/28 01:01:17;;;;;;;0.40;0.40;;;;;;;13.37;86.78;98588.25;4809627;29;20604;-86
2023/06/28 01:03:50;;;;;;;0.40;0.40;;;;;;;13.33;86.99;98592.59;4809461;29;20392;-89
2023/06/28 01:06:18;;;;;;;0.40;0.40;;;;;;;13.36;87.11;98586.63;4809261;29;20054;-85
2023/06/28 01:08:46;;;;;;;0.30;0.30;;;;;;;13.30;87.06;98582.31;4805171;29;20055;-86
2023/06/28 01:11:24;;;;;;;0.30;0.30;;;;;;;13.35;86.93;98587.72;4788883;29;20110;-86
2023/06/28 01:13:51;;;;;;;0.30;0.30;;;;;;;13.27;86.88;98589.09;4794552;29;20059;-90
2023/06/28 01:17:11;;;;;;;0.30;0.30;;;;;;;13.37;87.19;98601.81;4799209;29;20064;-88
2023/06/28 01:19:39;;;;;;;0.40;0.40;;;;;;;13.30;87.23;98596.66;4823201;29;20056;-84
2023/06/28 01:22:13;;;;;;;0.40;0.40;;;;;;;13.31;87.49;98605.59;4815396;29;20062;-83
2023/06/28 01:24:41;;;;;;;0.30;0.30;;;;;;;13.24;87.76;98597.69;4803010;29;20055;-88
2023/06/28 01:27:13;;;;;;;0.40;0.40;;;;;;;13.29;87.84;98603.16;4819285;29;20051;-87
2023/06/28 01:29:42;;;;;;;0.32;0.32;;;;;;;13.23;87.82;98594.19;4861101;24;20149;-93
2023/06/28 01:32:16;;;;;;;0.40;0.40;;;;;;;13.22;88.31;98597.19;4792053;29;20522;-82
2023/06/28 01:34:43;;;;;;;0.40;0.40;;;;;;;13.16;88.52;98584.69;4812039;29;20156;-85
2023/06/28 01:37:13;;;;;;;0.40;0.40;;;;;;;13.18;88.57;98587.97;4822513;29;20062;-84
2023/06/28 01:39:51;;;;;;;0.40;0.40;;;;;;;13.26;88.88;98581.19;4806943;29;20064;-82
2023/06/28 01:42:25;;;;;;;0.40;0.40;;;;;;;13.27;88.62;98590.94;4796521;29;20050;-84
2023/06/28 01:44:52;;;;;;;0.40;0.40;;;;;;;13.25;88.98;98587.69;4828222;29;20411;-86
2023/06/28 01:47:25;;;;;;;0.40;0.40;;;;;;;13.18;88.93;98574.41;4841133;29;20550;-86
2023/06/28 01:49:52;;;;;;;0.40;0.40;;;;;;;13.25;88.83;98599.34;4812193;29;20051;-86
2023/06/28 01:52:26;;;;;;;0.40;0.40;;;;;;;13.17;88.82;98586.34;4803277;29;20056;-88
2023/06/28 01:54:53;;;;;;;0.40;0.40;;;;;;;13.15;89.20;98583.09;4826997;29;20467;-82
2023/06/28 01:57:20;;;;;;;0.40;0.40;;;;;;;13.27;89.25;98593.66;4840643;29;20123;-82
2023/06/28 01:59:47;;;;;;;0.40;0.40;;;;;;;13.22;89.48;98581.72;4823326;29;20091;-83
2023/06/28 02:02:14;;;;;;;0.40;0.40;;;;;;;13.28;89.63;98598.81;4808985;29;20101;-83
2023/06/28 02:04:41;;;;;;;0.40;0.40;;;;;;;13.29;89.69;98592.31;4823961;29;20585;-82
2023/06/28 02:07:08;;;;;;;0.40;0.40;;;;;;;13.25;89.97;98595.81;4831550;29;20140;-82
2023/06/28 02:09:35;;;;;;;0.40;0.40;;;;;;;13.09;90.30;98576.03;4820620;29;20529;-82
2023/06/28 02:12:08;;;;;;;0.40;0.40;;;;;;;13.24;90.13;98600.41;4806834;29;20198;-82
2023/06/28 02:14:39;;;;;;;0.40;0.40;;;;;;;13.23;90.06;98604.22;4821310;29;20058;-83
2023/06/28 02:17:13;;;;;;;0.30;0.30;;;;;;;13.13;90.15;98582.53;4821381;29;20074;-82
2023/06/28 02:19:41;;;;;;;0.40;0.40;;;;;;;13.25;90.38;98599.34;4790947;29;20107;-83
2023/06/28 02:22:09;;;;;;;0.40;0.40;;;;;;;13.26;90.65;98598.25;4820716;29;20051;-82
2023/06/28 02:24:36;;;;;;;0.40;0.40;;;;;;;13.28;90.32;98596.13;4822483;29;20098;-82
2023/06/28 02:27:04;;;;;;;0.40;0.40;;;;;;;13.29;90.59;98586.09;4822116;29;20058;-83
2023/06/28 02:29:34;;;;;;;0.40;0.40;;;;;;;13.31;90.76;98592.84;4832246;29;20521;-82
2023/06/28 02:32:02;;;;;;;0.40;0.40;;;;;;;13.35;90.38;98595.84;4839965;29;20121;-82
2023/06/28 02:34:35;;;;;;;0.40;0.40;;;;;;;13.36;90.19;98597.47;4844253;29;20061;-82
2023/06/28 02:37:02;;;;;;;0.40;0.40;;;;;;;13.34;89.97;98595.03;4858218;29;20077;-82
2023/06/28 02:39:29;;;;;;;0.40;0.40;;;;;;;13.38;90.06;98596.09;4842282;29;20404;-82
2023/06/28 02:42:03;;;;;;;0.32;0.32;;;;;;;13.36;90.14;98592.03;4827079;29;20057;-83
2023/06/28 02:44:36;;;;;;;0.40;0.40;;;;;;;13.40;89.94;98599.38;4858234;29;20149;-83
2023/06/28 02:47:05;;;;;;;0.40;0.40;;;;;;;13.40;89.67;98604.78;4841549;29;20073;-81
2023/06/28 02:49:32;;;;;;;0.40;0.40;;;;;;;13.37;89.51;98599.09;4827017;29;20489;-81
2023/06/28 02:51:59;;;;;;;0.38;0.38;;;;;;;13.40;89.15;98607.50;4858636;29;20118;-82
2023/06/28 02:54:26;;;;;;;0.40;0.40;;;;;;;13.39;89.15;98605.88;4841865;29;20058;-82
2023/06/28 02:56:53;;;;;;;0.40;0.40;;;;;;;13.38;89.04;98598.81;4842559;29;20049;-82
2023/06/28 02:59:52;;;;;;;0.40;0.40;;;;;;;13.35;88.91;98593.13;4847363;29;20057;-81
2023/06/28 03:02:25;;;;;;;0.40;0.40;;;;;;;13.39;88.83;98589.63;4826552;29;20646;-82
2023/06/28 03:04:59;;;;;;;0.40;0.40;;;;;;;13.43;88.68;98601.53;4857082;29;20164;-81
2023/06/28 03:07:26;;;;;;;0.40;0.40;;;;;;;13.51;88.42;98593.94;4865693;29;20053;-83
2023/06/28 03:09:53;;;;;;;0.40;0.40;;;;;;;13.57;88.07;98603.66;4808347;29;20168;-83
2023/06/28 03:12:20;;;;;;;0.32;0.32;;;;;;;13.66;87.49;98608.25;4838172;29;20058;-83
2023/06/28 03:14:48;;;;;;;0.40;0.40;;;;;;;13.74;87.11;98598.75;4823284;29;20140;-83
2023/06/28 03:17:19;;;;;;;0.40;0.40;;;;;;;13.85;86.53;98605.78;4823074;29;20100;-82
2023/06/28 03:19:46;;;;;;;0.40;0.40;;;;;;;13.92;86.15;98608.19;4838469;29;20054;-81
2023/06/28 03:22:20;;;;;;;0.40;0.40;;;;;;;13.98;85.53;98592.72;4839749;29;20049;-83
2023/06/28 03:24:47;;;;;;;0.40;0.40;;;;;;;14.06;85.14;98608.44;4825580;29;20617;-83
2023/06/28 03:27:14;;;;;;;0.40;0.40;;;;;;;14.15;84.88;98604.03;4842691;29;20057;-83
2023/06/28 03:29:42;;;;;;;0.40;0.40;;;;;;;14.19;84.34;98602.41;4846389;29;20061;-83
2023/06/28 03:32:09;;;;;;;0.40;0.40;;;;;;;14.36;83.76;98606.69;4847666;29;20057;-83
2023/06/28 03:34:37;;;;;;;0.40;0.40;;;;;;;14.31;83.17;98600.19;4883711;29;20076;-82
2023/06/28 03:37:22;;;;;;;0.40;0.40;;;;;;;14.41;82.56;98607.47;4866707;29;20056;-82
2023/06/28 03:39:49;;;;;;;0.40;0.40;;;;;;;14.42;82.34;98611.00;4867340;29;20099;-83
2023/06/28 03:42:19;;;;;;;0.38;0.38;;;;;;;14.41;81.90;98595.81;4882585;29;20109;-81
2023/06/28 03:44:46;;;;;;;0.40;0.40;;;;;;;14.39;81.48;98593.38;4864358;29;20106;-82
2023/06/28 03:47:29;;;;;;;0.35;0.35;;;;;;;14.42;81.58;98606.38;4861974;29;20435;-82
2023/06/28 03:49:56;;;;;;;0.30;0.30;;;;;;;14.46;81.32;98604.72;4863464;29;20053;-81
2023/06/28 03:52:25;;;;;;;0.40;0.40;;;;;;;14.40;81.02;98597.69;4879864;29;20060;-82
2023/06/28 03:54:52;;;;;;;0.40;0.40;;;;;;;14.40;80.95;98603.13;4863148;29;20508;-82
2023/06/28 03:57:21;;;;;;;0.40;0.40;;;;;;;14.37;80.84;98595.53;4858100;29;20060;-81
2023/06/28 03:59:55;;;;;;;0.40;0.40;;;;;;;14.39;80.74;98603.41;4863552;29;20045;-82
2023/06/28 04:02:21;;;;;;;0.40;0.40;;;;;;;14.43;80.37;98604.47;4852098;29;20486;-82
2023/06/28 04:04:49;;;;;;;0.40;0.40;;;;;;;14.46;80.26;98606.63;4861558;29;20334;-82
2023/06/28 04:07:16;;;;;;;0.40;0.40;;;;;;;14.55;79.93;98598.75;4877506;29;20087;-83
2023/06/28 04:09:49;;;;;;;0.40;0.40;;;;;;;14.59;79.80;98592.47;4886816;29;20078;-83
2023/06/28 04:12:16;;;;;;;0.40;0.40;;;;;;;14.71;79.69;98592.94;4870276;29;20049;-82
2023/06/28 04:14:43;;;;;;;0.40;0.40;;;;;;;14.77;79.27;98590.19;4836568;29;20055;-81
2023/06/28 04:17:10;;;;;;;0.40;0.40;;;;;;;14.82;79.23;98601.03;4859839;29;20061;-87
2023/06/28 04:19:38;;;;;;;0.40;0.40;;;;;;;14.95;78.72;98605.81;4858637;29;20110;-81
2023/06/28 04:22:07;;;;;;;0.40;0.40;;;;;;;15.03;78.17;98599.78;4848361;29;20042;-79
2023/06/28 04:24:34;;;;;;;0.40;0.40;;;;;;;15.11;77.55;98601.88;4832967;29;20053;-80
2023/06/28 04:27:09;;;;;;;0.40;0.40;;;;;;;15.21;76.97;98600.19;4847312;29;20049;-82
2023/06/28 04:29:37;;;;;;;0.40;0.40;;;;;;;15.19;76.91;98597.72;4859835;29;20148;-80
2023/06/28 04:32:26;;;;;;;0.40;0.40;;;;;;;15.31;76.18;98589.22;4842779;29;20049;-81
2023/06/28 04:34:59;;;;;;;;;;;;;;;15.35;75.80;98585.66;4852076;29;20125;-81
2023/06/28 04:37:32;;;;;;;0.40;0.40;;;;;;;15.43;75.31;98580.69;4842394;29;19932;-81
2023/06/28 04:40:02;;;;;;;0.40;0.40;;;;;;;15.56;74.57;98586.25;4856970;29;20447;-81
2023/06/28 04:42:30;;;;;;;0.40;0.40;;;;;;;15.68;74.02;98591.31;4858207;29;20049;-81
2023/06/28 04:44:59;;;;;;;0.40;0.40;;;;;;;15.76;73.54;98581.75;4861208;29;20618;-81
2023/06/28 04:47:27;;;;;;;0.40;0.40;;;;;;;15.89;73.20;98582.97;4860664;29;20064;-82
2023/06/28 04:49:55;;;;;;;0.40;0.40;;;;;;;15.96;72.88;98577.97;4861033;29;20057;-82
2023/06/28 04:52:23;;;;;;;0.40;0.40;;;;;;;16.07;72.63;98573.22;4848293;29;20443;-81
2023/06/28 04:54:50;;;;;;;0.40;0.40;;;;;;;16.10;71.13;98570.72;4868796;29;20057;-79
2023/06/28 04:57:20;;;;;;;0.40;0.40;;;;;;;16.14;70.17;98557.34;4867132;29;20045;-80
2023/06/28 04:59:47;;;;;;;0.30;0.30;;;;;;;16.27;69.79;98569.44;4866369;29;20052;-80
2023/06/28 05:02:27;;;;;;;0.40;0.40;;;;;;;16.45;69.29;98571.34;4863080;29;20187;-82
2023/06/28 05:05:01;;;;;;;0.35;0.35;;;;;;;16.59;68.79;98571.44;4862507;29;20056;-81
2023/06/28 05:07:29;;;;;;;0.30;0.30;;;;;;;16.66;68.57;98571.88;4866660;29;20064;-81
2023/06/28 05:09:56;;;;;;;0.40;0.40;;;;;;;16.85;68.51;98564.53;4860276;29;20417;-81
2023/06/28 05:12:24;;;;;;;0.40;0.40;;;;;;;16.94;67.54;98551.06;4861795;29;20148;-80
2023/06/28 05:14:56;;;;;;;0.40;0.40;;;;;;;17.14;66.93;98558.06;4836443;29;20057;-80
2023/06/28 05:17:26;;;;;;;0.40;0.40;;;;;;;17.28;66.36;98558.94;4869404;29;20553;-81
2023/06/28 05:19:59;;;;;;;0.40;0.40;;;;;;;17.60;65.53;98556.44;4860678;29;20057;-79
2023/06/28 05:22:52;;;;;;;0.30;0.30;;;;;;;17.74;64.22;98554.53;4859041;29;20053;-79
2023/06/28 05:25:25;;;;;;;0.40;0.40;;;;;;;17.73;63.26;98555.66;4849179;29;20478;-78
2023/06/28 05:27:52;;;;;;;0.30;0.30;;;;;;;17.78;63.79;98555.56;4878208;29;20393;-79
2023/06/28 05:30:19;;;;;;;0.40;0.40;;;;;;;17.85;63.56;98557.91;4877768;29;20544;-80
2023/06/28 05:32:52;;;;;;;0.40;0.40;;;;;;;17.79;62.59;98559.09;4878226;29;20056;-79
2023/06/28 05:35:19;;;;;;;0.40;0.40;;;;;;;17.90;62.39;98555.06;4878042;29;20057;-79
2023/06/28 05:37:46;;;;;;;0.40;0.40;;;;;;;17.88;62.15;98557.31;4878157;29;20160;-79
2023/06/28 05:40:14;;;;;;;0.30;0.30;;;;;;;17.93;61.65;98558.03;4860978;29;20140;-80
2023/06/28 05:42:41;;;;;;;0.30;0.30;;;;;;;17.91;61.72;98562.97;4877946;29;20505;-79
2023/06/28 05:45:14;;;;;;;0.40;0.40;;;;;;;18.02;61.28;98552.66;4877823;29;20048;-79
2023/06/28 05:47:57;;;;;;;0.40;0.40;;;;;;;18.26;60.89;98557.91;4878303;29;20049;-79
2023/06/28 05:50:24;;;;;;;0.40;0.40;;;;;;;18.50;59.93;98559.56;4878044;29;20049;-80
2023/06/28 05:52:58;;;;;;;0.40;0.40;;;;;;;18.58;59.48;98553.38;4877535;29;20140;-80
2023/06/28 05:55:25;;;;;;;0.40;0.40;;;;;;;18.83;59.06;98554.72;4877176;29;20065;-79
2023/06/28 05:57:52;;;;;;;0.40;0.40;;;;;;;18.92;57.54;98547.41;4877857;29;20060;-79
2023/06/28 06:00:19;;;;;;;0.40;0.40;;;;;;;18.89;57.00;98550.78;4877574;29;20140;-79
2023/06/28 06:02:46;;;;;;;0.40;0.40;;;;;;;18.87;56.95;98546.75;4877490;29;20144;-79
2023/06/28 06:05:13;;;;;;;0.40;0.40;;;;;;;18.78;56.99;98547.44;4877125;29;20056;-79
2023/06/28 06:07:41;;;;;;;0.30;0.30;;;;;;;18.84;57.44;98548.16;4875200;29;20057;-79
2023/06/28 06:10:10;;;;;;;0.40;0.40;;;;;;;18.92;57.00;98535.69;4858433;29;20053;-80
2023/06/28 06:12:37;;;;;;;0.40;0.40;;;;;;;19.02;56.64;98546.38;4842126;29;20124;-79
2023/06/28 06:15:06;;;;;;;0.40;0.40;;;;;;;19.13;56.20;98536.78;4858252;29;20053;-80
2023/06/28 06:17:49;;;;;;;0.40;0.40;;;;;;;19.17;55.70;98543.25;4858525;29;20136;-81
2023/06/28 06:20:22;;;;;;;0.38;0.38;;;;;;;19.18;56.01;98539.38;4858134;29;20053;-80
2023/06/28 06:22:56;;;;;;;0.40;0.40;;;;;;;19.16;55.71;98543.53;4874306;29;20101;-79
2023/06/28 06:25:23;;;;;;;0.30;0.30;;;;;;;19.08;55.76;98549.78;4876651;29;20135;-80
2023/06/28 06:27:50;;;;;;;0.40;0.40;;;;;;;19.14;55.75;98548.50;4877021;29;20059;-79
2023/06/28 06:30:20;;;;;;;0.30;0.30;;;;;;;19.12;55.19;98546.09;4860195;29;20466;-79
2023/06/28 06:32:48;;;;;;;0.30;0.30;;;;;;;19.17;55.53;98547.91;4876877;29;20057;-78
2023/06/28 06:35:16;;;;;;;0.40;0.40;;;;;;;19.18;54.96;98544.03;4876536;29;20056;-79
2023/06/28 06:37:49;;;;;;;0.40;0.40;;;;;;;19.19;55.23;98551.13;4876813;29;20045;-79
2023/06/28 06:40:19;;;;;;;0.30;0.30;;;;;;;19.23;55.53;98546.66;4876578;29;20045;-79
2023/06/28 06:42:46;;;;;;;0.40;0.40;;;;;;;19.28;55.09;98541.84;4876642;29;20117;-79
2023/06/28 06:45:17;;;;;;;0.30;0.30;;;;;;;19.33;54.71;98543.66;4876396;29;20111;-80
2023/06/28 06:47:44;;;;;;;0.40;0.40;;;;;;;19.38;54.55;98540.78;4876840;29;20539;-81
2023/06/28 06:50:13;;;;;;;0.40;0.40;;;;;;;19.43;54.65;98545.31;4859483;29;20093;-79
2023/06/28 06:52:52;;;;;;;0.40;0.40;;;;;;;19.61;54.74;98549.75;4860196;29;20132;-79
2023/06/28 06:55:25;;;;;;;0.40;0.40;;;;;;;19.75;54.05;98540.66;4859527;29;20069;-79
2023/06/28 06:57:55;;;;;;;0.40;0.40;;;;;;;19.90;53.78;98543.78;4876621;29;20060;-79
2023/06/28 07:00:28;;;;;;;0.40;0.40;;;;;;;20.03;53.29;98542.06;4876564;29;20049;-79
2023/06/28 07:02:56;;;;;;;0.40;0.40;;;;;;;20.09;53.14;98539.97;4874123;29;20448;-79
2023/06/28 07:05:23;;;;;;;0.40;0.40;;;;;;;20.23;52.65;98543.38;4876044;29;20417;-79
2023/06/28 07:07:57;;;;;;;0.40;0.40;;;;;;;20.28;52.81;98537.75;4856229;29;20052;-79
2023/06/28 07:10:30;;;;;;;0.40;0.40;;;;;;;20.44;52.57;98526.34;4856538;29;20103;-79
2023/06/28 07:13:03;;;;;;;0.30;0.30;;;;;;;20.58;52.01;98523.44;4857987;29;20135;-79
2023/06/28 07:15:37;;;;;;;0.40;0.40;;;;;;;20.60;52.17;98519.25;4837616;29;20487;-79
2023/06/28 07:18:07;;;;;;;0.40;0.40;;;;;;;20.83;52.01;98513.63;4855662;29;20059;-79
2023/06/28 07:20:34;;;;;;;0.40;0.40;;;;;;;21.03;51.78;98514.88;4876360;29;20083;-80
2023/06/28 07:23:02;;;;;;;0.40;0.40;;;;;;;21.32;51.78;98492.19;4876607;29;20074;-80
2023/06/28 07:25:30;;;;;;;0.35;0.35;;;;;;;21.69;50.85;98500.81;4844495;29;20427;-79
2023/06/28 07:27:58;;;;;;;0.40;0.40;;;;;;;21.79;50.52;98500.44;4876337;29;20061;-80
2023/06/28 07:30:29;;;;;;;0.30;0.30;;;;;;;21.91;50.92;98486.00;4859987;29;20151;-79
2023/06/28 07:32:59;;;;;;;0.30;0.30;;;;;;;21.86;50.58;98493.28;4876276;29;20041;-79
2023/06/28 07:35:38;;;;;;;0.30;0.30;;;;;;;21.70;50.75;98491.44;4876029;29;20057;-79
2023/06/28 07:38:05;;;;;;;0.30;0.30;;;;;;;21.70;50.17;98489.50;4876191;29;20076;-79
2023/06/28 07:40:38;;;;;;;0.30;0.30;;;;;;;21.64;49.51;98488.88;4876425;29;20049;-79
2023/06/28 07:43:13;;;;;;;0.20;0.20;;;;;;;21.61;49.31;98483.25;4876383;29;20060;-80
2023/06/28 07:45:40;;;;;;;0.30;0.30;;;;;;;21.67;49.23;98486.59;4876032;29;20049;-80
2023/06/28 07:48:08;;;;;;;0.30;0.30;;;;;;;21.82;49.15;98483.31;4859303;29;20051;-79
2023/06/28 07:50:36;;;;;;;0.30;0.30;;;;;;;22.11;48.38;98492.69;4859328;29;20064;-79
2023/06/28 07:53:09;;;;;;;0.30;0.30;;;;;;;22.29;47.63;98481.25;4875769;29;20101;-79
2023/06/28 07:55:45;;;;;;;0.40;0.40;;;;;;;22.42;47.63;98484.06;4875839;29;20420;-79
2023/06/28 07:58:24;;;;;;;0.35;0.35;;;;;;;22.82;47.04;98487.13;4875565;29;20163;-80
2023/06/28 08:00:59;;;;;;;0.30;0.30;;;;;;;23.23;46.30;98484.63;4859318;29;20052;-81
2023/06/28 08:03:26;;;;;;;0.40;0.40;;;;;;;23.39;45.29;98476.50;4875472;29;20086;-80
2023/06/28 08:05:57;;;;;;;0.40;0.40;;;;;;;23.53;44.95;98474.25;4876098;29;20049;-80
2023/06/28 08:08:24;;;;;;;0.30;0.30;;;;;;;23.41;44.88;98468.72;4868222;29;20118;-79
2023/06/28 08:10:56;;;;;;;0.40;0.40;;;;;;;23.40;44.56;98476.19;4857444;29;20061;-79
2023/06/28 08:13:30;;;;;;;0.30;0.30;;;;;;;23.73;42.63;98473.38;4858809;29;20058;-79
2023/06/28 08:16:04;;;;;;;0.30;0.30;;;;;;;23.32;43.29;98477.06;4878038;29;20045;-80
2023/06/28 08:18:31;;;;;;;0.30;0.30;;;;;;;23.37;42.62;98463.09;4879018;29;20082;-79
2023/06/28 08:21:01;;;;;;;0.30;0.30;;;;;;;23.15;42.46;98472.59;4879254;29;20049;-80
2023/06/28 08:23:30;;;;;;;0.30;0.30;;;;;;;23.14;43.02;98476.47;4862193;29;20060;-80
2023/06/28 08:26:01;;;;;;;0.30;0.30;;;;;;;23.04;42.75;98483.22;4879254;29;20068;-79
2023/06/28 08:28:28;;;;;;;0.30;0.30;;;;;;;23.08;43.55;98478.63;4878623;29;20725;-80
2023/06/28 08:30:55;;;;;;;0.30;0.30;;;;;;;22.79;44.48;98482.31;4862263;29;20125;-79
2023/06/28 08:33:31;;;;;;;0.30;0.30;;;;;;;22.50;44.93;98469.44;4878978;29;20513;-78
2023/06/28 08:36:06;;;;;;;0.30;0.30;;;;;;;22.69;44.58;98468.97;4862876;29;20117;-79
2023/06/28 08:38:34;;;;;;;0.30;0.30;;;;;;;22.78;45.02;98469.69;4878673;29;20061;-79
2023/06/28 08:41:08;;;;;;;0.30;0.30;;;;;;;23.00;45.09;98474.03;4878758;29;20555;-79
2023/06/28 08:43:42;;;;;;;0.30;0.30;;;;;;;23.04;44.05;98477.72;4862263;29;20045;-79
2023/06/28 08:46:10;;;;;;;0.30;0.30;;;;;;;23.11;44.27;98474.41;4863247;29;20053;-80
2023/06/28 08:48:40;;;;;;;0.30;0.30;;;;;;;23.17;44.00;98466.72;4862739;29;20509;-80
2023/06/28 08:51:09;;;;;;;0.25;0.25;;;;;;;23.30;43.98;98463.66;4878399;29;20045;-79
2023/06/28 08:53:37;;;;;;;0.30;0.30;;;;;;;23.07;43.77;98465.22;4861736;29;20061;-79
2023/06/28 08:56:04;;;;;;;0.20;0.20;;;;;;;22.90;44.46;98461.47;4846785;29;20402;-80
2023/06/28 08:58:34;;;;;;;0.20;0.20;;;;;;;22.86;44.61;98457.78;4878468;29;20061;-80
2023/06/28 09:01:11;;;;;;;0.20;0.20;;;;;;;22.65;44.47;98454.28;4846775;29;20466;-80
2023/06/28 09:03:42;;;;;;;0.30;0.30;;;;;;;22.42;44.68;98451.88;4878547;29;20128;-81
2023/06/28 09:06:10;;;;;;;0.20;0.20;;;;;;;22.25;43.82;98449.28;4876112;29;20064;-80
2023/06/28 09:08:46;;;;;;;0.30;0.30;;;;;;;22.15;44.07;98455.94;4859491;29;20561;-80
2023/06/28 09:11:16;;;;;;;0.20;0.20;;;;;;;21.97;44.37;98454.44;4872481;29;20064;-80
2023/06/28 09:13:46;;;;;;;0.30;0.30;;;;;;;21.98;44.68;98465.13;4861269;29;20045;-80
2023/06/28 09:16:14;;;;;;;0.20;0.20;;;;;;;22.11;44.57;98456.97;4877361;29;20152;-80
2023/06/28 09:18:41;;;;;;;0.20;0.20;;;;;;;22.29;43.78;98456.53;4878138;29;20105;-80
2023/06/28 09:21:28;;;;;;;0.20;0.20;;;;;;;22.23;43.13;98454.28;4877809;29;20513;-80
2023/06/28 09:23:56;;;;;;;0.30;0.30;;;;;;;22.30;42.71;98451.81;4877839;29;20084;-80
2023/06/28 09:26:30;;;;;;;0.30;0.30;;;;;;;22.54;42.57;98447.59;4877589;29;20083;-80
2023/06/28 09:29:13;;;;;;;0.30;0.30;;;;;;;22.75;42.74;98444.81;4878024;29;20084;-80
2023/06/28 09:31:47;;;;;;;0.30;0.30;;;;;;;22.96;42.07;98447.50;4878268;29;20049;-79
2023/06/28 09:34:21;;;;;;;0.30;0.30;;;;;;;23.09;41.40;98432.66;4877644;29;20060;-80
2023/06/28 09:36:56;;;;;;;0.30;0.30;;;;;;;23.13;41.00;98445.38;4861296;29;20056;-80
2023/06/28 09:39:24;;;;;;;0.30;0.30;;;;;;;23.15;40.95;98437.59;4877940;29;20061;-79
2023/06/28 09:41:53;;;;;;;0.30;0.30;;;;;;;23.05;40.25;98446.28;4861606;29;20116;-78
2023/06/28 09:44:28;;;;;;;0.30;0.30;;;;;;;22.97;40.00;98435.38;4845864;29;20049;-80
2023/06/28 09:47:03;;;;;;;0.30;0.30;;;;;;;22.79;40.70;98427.28;4878388;29;20055;-78
2023/06/28 09:49:30;;;;;;;0.30;0.30;;;;;;;22.72;41.57;98432.53;4878966;29;20053;-80
2023/06/28 09:52:23;;;;;;;0.30;0.30;;;;;;;22.69;41.41;98434.03;4861125;29;20049;-79
2023/06/28 09:54:50;;;;;;;0.30;0.30;;;;;;;22.38;42.00;98422.66;4861270;29;20136;-80
2023/06/28 09:57:18;;;;;;;0.20;0.20;;;;;;;22.52;41.59;98427.88;4877301;29;20092;-80
2023/06/28 09:59:55;;;;;;;0.25;0.25;;;;;;;22.60;41.41;98418.75;4862108;29;20057;-79
2023/06/28 10:02:29;;;;;;;0.30;0.30;;;;;;;22.70;41.37;98421.06;4861095;29;20056;-80
2023/06/28 10:04:56;;;;;;;0.30;0.30;;;;;;;22.78;41.19;98420.16;4868269;29;20061;-79
2023/06/28 10:07:25;;;;;;;0.30;0.30;;;;;;;22.89;41.37;98418.59;4856749;29;20120;-80
2023/06/28 10:09:53;;;;;;;0.25;0.25;;;;;;;22.89;40.95;98415.84;4824700;29;20133;-80
2023/06/28 10:12:24;;;;;;;0.25;0.25;;;;;;;22.88;41.70;98422.50;4840119;29;20049;-79
2023/06/28 10:15:09;;;;;;;;;;;;;;;22.82;41.56;98412.06;4825057;29;20083;-80
2023/06/28 10:17:38;;;;;;;0.30;0.30;;;;;;;22.86;41.72;98416.50;4824345;29;20352;-80
2023/06/28 10:20:14;;;;;;;0.30;0.30;;;;;;;22.89;41.79;98398.56;4825021;29;20084;-79
2023/06/28 10:22:48;;;;;;;0.30;0.30;;;;;;;22.96;41.96;98404.28;4824100;29;20114;-80
2023/06/28 10:25:15;;;;;;;0.20;0.20;;;;;;;22.81;42.80;98402.19;4824101;29;20073;-79
2023/06/28 10:27:42;;;;;;;0.28;0.28;;;;;;;22.70;42.78;98407.31;4808806;29;20483;-80
2023/06/28 10:30:27;;;;;;;0.30;0.30;;;;;;;22.71;43.05;98406.16;4824453;29;20133;-79
2023/06/28 10:32:56;;;;;;;0.30;0.30;;;;;;;22.69;43.22;98400.22;4844759;29;20054;-79
2023/06/28 10:35:25;;;;;;;0.20;0.20;;;;;;;22.55;43.44;98394.22;4860215;29;20055;-81
2023/06/28 10:37:56;;;;;;;0.20;0.20;;;;;;;22.64;43.89;98394.94;4876007;29;20081;-80
2023/06/28 10:40:31;;;;;;;0.30;0.30;;;;;;;22.81;43.42;98383.72;4876304;29;20049;-79
2023/06/28 10:43:04;;;;;;;0.30;0.30;;;;;;;22.72;43.31;98381.06;4876906;29;20783;-78
2023/06/28 10:45:37;;;;;;;0.20;0.20;;;;;;;22.73;44.03;98395.63;4876569;29;20059;-79
2023/06/28 10:48:11;;;;;;;0.20;0.20;;;;;;;22.65;43.99;98386.31;4876855;29;20612;-79
2023/06/28 10:50:41;;;;;;;0.25;0.25;;;;;;;22.75;44.21;98390.59;4860461;29;20105;-80
2023/06/28 10:53:21;;;;;;;0.30;0.30;;;;;;;22.80;43.74;98384.09;4860836;29;20052;-80
2023/06/28 10:56:09;;;;;;;0.30;0.30;;;;;;;23.04;43.76;98375.91;4860473;29;20076;-80
2023/06/28 10:58:38;;;;;;;0.30;0.30;;;;;;;23.46;42.91;98381.19;4876906;29;20425;-80
2023/06/28 11:01:10;;;;;;;0.30;0.30;;;;;;;23.23;42.99;98375.34;4868334;29;20454;-80
2023/06/28 11:03:43;;;;;;;0.30;0.30;;;;;;;23.18;42.87;98383.03;4870872;29;20414;-79
2023/06/28 11:06:14;;;;;;;0.20;0.20;;;;;;;22.81;44.22;98380.19;4874394;29;20063;-79
2023/06/28 11:08:43;;;;;;;0.20;0.20;;;;;;;22.50;44.66;98392.47;4850215;29;20145;-79
2023/06/28 11:11:46;;;;;;;0.20;0.20;;;;;;;22.09;45.32;98402.34;4857925;29;20144;-79
2023/06/28 11:14:22;;;;;;;0.20;0.20;;;;;;;21.73;46.46;98394.69;4767677;30;20135;-80
2023/06/28 11:16:50;;;;;;;0.28;0.28;;;;;;;21.64;46.67;98398.25;4783020;30;20059;-79
2023/06/28 11:19:25;;;;;;;0.30;0.30;;;;;;;21.69;46.39;98380.00;4782632;30;20120;-79
2023/06/28 11:21:56;;;;;;;0.30;0.30;;;;;;;21.81;46.69;98383.63;4782770;30;20055;-80
2023/06/28 11:24:47;;;;;;;0.28;0.28;;;;;;;22.04;46.66;98380.56;4782381;30;20055;-80
2023/06/28 11:27:21;;;;;;;0.20;0.20;;;;;;;22.18;46.21;98370.09;4782831;30;20097;-79
2023/06/28 11:29:58;;;;;;;;;;;;;;;22.29;46.04;98378.75;4782812;30;20075;-79
2023/06/28 11:32:32;;;;;;;0.20;0.20;;;;;;;22.14;46.54;98382.09;4782639;30;19929;-79
2023/06/28 11:34:59;;;;;;;;;;;;;;;21.91;46.33;98387.94;4783183;30;20048;-78
2023/06/28 11:37:28;;;;;;;0.20;0.20;;;;;;;21.63;47.36;98382.94;4782550;30;19991;-79
2023/06/28 11:40:03;;;;;;;0.20;0.20;;;;;;;21.48;47.67;98386.25;4783104;30;20055;-78
2023/06/28 11:42:30;;;;;;;0.20;0.20;;;;;;;21.34;48.81;98380.97;4767901;30;20074;-78
2023/06/28 11:44:57;;;;;;;0.20;0.20;;;;;;;21.15;48.79;98370.41;4783252;30;20090;-80
2023/06/28 11:47:38;;;;;;;0.30;0.30;;;;;;;21.03;49.59;98378.53;4782873;30;20087;-79
2023/06/28 11:50:06;;;;;;;0.20;0.20;;;;;;;20.92;49.59;98380.03;4804200;29;20066;-80
2023/06/28 11:52:33;;;;;;;0.20;0.20;;;;;;;20.84;50.22;98375.34;4861572;29;20045;-79
2023/06/28 11:55:01;;;;;;;0.20;0.20;;;;;;;20.76;51.03;98382.47;4861652;29;20049;-78
2023/06/28 11:57:28;;;;;;;0.30;0.30;;;;;;;20.64;51.63;98388.66;4861079;29;20061;-80
2023/06/28 11:59:56;;;;;;;0.20;0.20;;;;;;;20.47;51.74;98399.63;4874083;29;20151;-80
2023/06/28 12:02:49;;;;;;;0.20;0.20;;;;;;;20.40;52.01;98380.09;4864806;29;20049;-80
2023/06/28 12:05:29;;;;;;;0.30;0.30;;;;;;;20.38;51.88;98366.72;4847844;29;20474;-80
2023/06/28 12:08:00;;;;;;;0.30;0.30;;;;;;;20.47;51.65;98369.47;4863268;29;20061;-80
2023/06/28 12:10:34;;;;;;;0.30;0.30;;;;;;;20.65;51.83;98375.75;4861093;29;20081;-79
2023/06/28 12:13:02;;;;;;;0.30;0.30;;;;;;;20.87;51.25;98369.25;4861104;29;20532;-80
2023/06/28 12:15:31;;;;;;;0.30;0.30;;;;;;;21.12;50.63;98373.81;4861159;29;20471;-80
2023/06/28 12:18:01;;;;;;;0.30;0.30;;;;;;;21.42;49.79;98365.59;4861404;29;20053;-79
2023/06/28 12:20:28;;;;;;;0.30;0.30;;;;;;;21.73;49.26;98370.75;4843943;29;20061;-80
2023/06/28 12:22:56;;;;;;;0.30;0.30;;;;;;;22.01;48.21;98354.56;4860976;29;20067;-80
2023/06/28 12:25:30;;;;;;;0.30;0.30;;;;;;;22.10;47.90;98362.72;4860768;29;20053;-80
2023/06/28 12:28:02;;;;;;;0.20;0.20;;;;;;;22.02;48.33;98363.59;4860874;29;20113;-80
2023/06/28 12:30:30;;;;;;;0.30;0.30;;;;;;;21.79;48.73;98374.91;4860518;29;20100;-80
2023/06/28 12:32:57;;;;;;;0.30;0.30;;;;;;;21.74;48.47;98374.31;4860711;29;20049;-78